sensor_id;sensor_type;location;lat;lon;timestamp;temperature;humidity
19908;DHT22;10116;53.112;7.356;2022-07-06T00:01:15;28.30;99.90
19908;DHT22;10116;53.112;7.356;2022-07-06T00:03:41;28.30;99.90
19908;DHT22;10116;53.112;7.356;2022-07-06T00:06:07;28.30;99.90
19908;DHT22;10116;53.112;7.356;2022-07-06T00:08:33;28.30;99.90
19908;DHT22;10116;53.112;7.356;2022-07-06T00:10:59;28.30;99.90
19908;DHT22;10116;53.112;7.356;2022-07-06T00:13:24;28.30;99.90
19908;DHT22;10116;53.112;7.356;2022-07-06T00:15:50;28.30;99.90
19908;DHT22;10116;53.112;7.356;2022-07-06T00:18:16;28.20;99.90
19908;DHT22;10116;53.112;7.356;2022-07-06T00:20:41;28.30;99.90
19908;DHT22;10116;53.112;7.356;2022-07-06T00:23:07;28.20;99.90
19908;DHT22;10116;53.112;7.356;2022-07-06T00:25:32;28.20;99.90
19908;DHT22;10116;53.112;7.356;2022-07-06T00:27:58;28.20;99.90
19908;DHT22;10116;53.112;7.356;2022-07-06T00:30:23;28.20;99.90
19908;DHT22;10116;53.112;7.356;2022-07-06T00:32:49;28.20;99.90
19908;DHT22;10116;53.112;7.356;2022-07-06T00:35:14;28.30;99.90
19908;DHT22;10116;53.112;7.356;2022-07-06T00:37:40;28.30;99.90
19908;DHT22;10116;53.112;7.356;2022-07-06T00:40:06;28.30;99.90
19908;DHT22;10116;53.112;7.356;2022-07-06T00:42:47;28.40;99.90
19908;DHT22;10116;53.112;7.356;2022-07-06T00:45:14;28.40;99.90
19908;DHT22;10116;53.112;7.356;2022-07-06T00:47:41;28.50;99.90
19908;DHT22;10116;53.112;7.356;2022-07-06T00:50:08;28.50;99.90
19908;DHT22;10116;53.112;7.356;2022-07-06T00:53:00;28.50;99.90
19908;DHT22;10116;53.112;7.356;2022-07-06T00:55:28;28.50;99.90
19908;DHT22;10116;53.112;7.356;2022-07-06T00:57:55;28.50;99.90
19908;DHT22;10116;53.112;7.356;2022-07-06T01:00:24;28.50;99.90
19908;DHT22;10116;53.112;7.356;2022-07-06T01:02:50;28.60;99.90
19908;DHT22;10116;53.112;7.356;2022-07-06T01:05:17;28.50;99.90
19908;DHT22;10116;53.112;7.356;2022-07-06T01:07:44;28.60;99.90
19908;DHT22;10116;53.112;7.356;2022-07-06T01:10:12;28.60;99.90
19908;DHT22;10116;53.112;7.356;2022-07-06T01:12:40;28.50;99.90
19908;DHT22;10116;53.112;7.356;2022-07-06T01:15:20;28.60;99.90
19908;DHT22;10116;53.112;7.356;2022-07-06T01:17:46;28.60;99.90
19908;DHT22;10116;53.112;7.356;2022-07-06T01:20:14;28.60;99.90
19908;DHT22;10116;53.112;7.356;2022-07-06T01:22:40;28.50;99.90
19908;DHT22;10116;53.112;7.356;2022-07-06T01:25:07;28.50;99.90
19908;DHT22;10116;53.112;7.356;2022-07-06T01:27:38;28.50;99.90
19908;DHT22;10116;53.112;7.356;2022-07-06T01:30:14;28.60;99.90
19908;DHT22;10116;53.112;7.356;2022-07-06T01:32:41;28.50;99.90
19908;DHT22;10116;53.112;7.356;2022-07-06T01:35:09;28.50;99.90
19908;DHT22;10116;53.112;7.356;2022-07-06T01:37:35;28.50;99.90
19908;DHT22;10116;53.112;7.356;2022-07-06T01:40:02;28.50;99.90
19908;DHT22;10116;53.112;7.356;2022-07-06T01:42:28;28.50;99.90
19908;DHT22;10116;53.112;7.356;2022-07-06T01:44:54;28.50;99.90
19908;DHT22;10116;53.112;7.356;2022-07-06T01:47:20;28.50;99.90
19908;DHT22;10116;53.112;7.356;2022-07-06T01:49:46;28.50;99.90
19908;DHT22;10116;53.112;7.356;2022-07-06T01:52:12;28.50;99.90
19908;DHT22;10116;53.112;7.356;2022-07-06T01:54:37;28.50;99.90
19908;DHT22;10116;53.112;7.356;2022-07-06T01:57:03;28.50;99.90
19908;DHT22;10116;53.112;7.356;2022-07-06T01:59:29;28.50;99.90
19908;DHT22;10116;53.112;7.356;2022-07-06T02:01:55;28.50;99.90
19908;DHT22;10116;53.112;7.356;2022-07-06T02:04:21;28.50;99.90
19908;DHT22;10116;53.112;7.356;2022-07-06T02:06:46;28.50;99.90
19908;DHT22;10116;53.112;7.356;2022-07-06T02:09:12;28.50;99.90
19908;DHT22;10116;53.112;7.356;2022-07-06T02:11:37;28.50;99.90
19908;DHT22;10116;53.112;7.356;2022-07-06T02:14:03;28.50;99.90
19908;DHT22;10116;53.112;7.356;2022-07-06T02:16:29;28.50;99.90
19908;DHT22;10116;53.112;7.356;2022-07-06T02:18:55;28.40;99.90
19908;DHT22;10116;53.112;7.356;2022-07-06T02:21:20;28.40;99.90
19908;DHT22;10116;53.112;7.356;2022-07-06T02:23:46;28.50;99.90
19908;DHT22;10116;53.112;7.356;2022-07-06T02:26:12;28.50;99.90
19908;DHT22;10116;53.112;7.356;2022-07-06T02:28:37;28.50;99.90
19908;DHT22;10116;53.112;7.356;2022-07-06T02:31:03;28.50;99.90
19908;DHT22;10116;53.112;7.356;2022-07-06T02:33:28;28.50;99.90
19908;DHT22;10116;53.112;7.356;2022-07-06T02:35:54;28.50;99.90
19908;DHT22;10116;53.112;7.356;2022-07-06T02:38:19;28.40;99.90
19908;DHT22;10116;53.112;7.356;2022-07-06T02:40:45;28.40;99.90
19908;DHT22;10116;53.112;7.356;2022-07-06T02:43:11;28.50;99.90
19908;DHT22;10116;53.112;7.356;2022-07-06T02:45:36;28.40;99.90
19908;DHT22;10116;53.112;7.356;2022-07-06T02:48:02;28.40;99.90
19908;DHT22;10116;53.112;7.356;2022-07-06T02:50:28;28.40;99.90
19908;DHT22;10116;53.112;7.356;2022-07-06T02:52:54;28.40;99.90
19908;DHT22;10116;53.112;7.356;2022-07-06T02:55:21;28.40;99.90
19908;DHT22;10116;53.112;7.356;2022-07-06T02:57:46;28.40;99.90
19908;DHT22;10116;53.112;7.356;2022-07-06T03:00:12;28.40;99.90
19908;DHT22;10116;53.112;7.356;2022-07-06T03:02:38;28.40;99.90
19908;DHT22;10116;53.112;7.356;2022-07-06T03:05:04;28.40;99.90
19908;DHT22;10116;53.112;7.356;2022-07-06T03:07:30;28.30;99.90
19908;DHT22;10116;53.112;7.356;2022-07-06T03:09:55;28.30;99.90
19908;DHT22;10116;53.112;7.356;2022-07-06T03:12:21;28.30;99.90
19908;DHT22;10116;53.112;7.356;2022-07-06T03:14:47;28.30;99.90
19908;DHT22;10116;53.112;7.356;2022-07-06T03:17:12;28.30;99.90
19908;DHT22;10116;53.112;7.356;2022-07-06T03:19:38;28.30;99.90
19908;DHT22;10116;53.112;7.356;2022-07-06T03:22:04;28.30;99.90
19908;DHT22;10116;53.112;7.356;2022-07-06T03:24:29;28.30;99.90
19908;DHT22;10116;53.112;7.356;2022-07-06T03:26:55;28.30;99.90
19908;DHT22;10116;53.112;7.356;2022-07-06T03:29:21;28.30;99.90
19908;DHT22;10116;53.112;7.356;2022-07-06T03:31:46;28.30;99.90
19908;DHT22;10116;53.112;7.356;2022-07-06T03:34:12;28.30;99.90
19908;DHT22;10116;53.112;7.356;2022-07-06T03:36:38;28.30;99.90
19908;DHT22;10116;53.112;7.356;2022-07-06T03:39:04;28.30;99.90
19908;DHT22;10116;53.112;7.356;2022-07-06T03:41:30;28.40;99.90
19908;DHT22;10116;53.112;7.356;2022-07-06T03:43:55;28.40;99.90
19908;DHT22;10116;53.112;7.356;2022-07-06T03:46:21;28.40;99.90
19908;DHT22;10116;53.112;7.356;2022-07-06T03:48:47;28.50;99.90
19908;DHT22;10116;53.112;7.356;2022-07-06T03:51:12;28.50;99.90
19908;DHT22;10116;53.112;7.356;2022-07-06T03:53:38;28.50;99.90
19908;DHT22;10116;53.112;7.356;2022-07-06T03:56:04;28.50;99.90
19908;DHT22;10116;53.112;7.356;2022-07-06T03:58:48;28.50;99.90
19908;DHT22;10116;53.112;7.356;2022-07-06T04:01:13;28.50;99.90
19908;DHT22;10116;53.112;7.356;2022-07-06T04:03:39;28.50;99.90
19908;DHT22;10116;53.112;7.356;2022-07-06T04:06:04;28.50;99.90
19908;DHT22;10116;53.112;7.356;2022-07-06T04:08:30;28.50;99.90
19908;DHT22;10116;53.112;7.356;2022-07-06T04:10:56;28.50;99.90
19908;DHT22;10116;53.112;7.356;2022-07-06T04:13:21;28.50;99.90
19908;DHT22;10116;53.112;7.356;2022-07-06T04:15:47;28.50;99.90
19908;DHT22;10116;53.112;7.356;2022-07-06T04:18:13;28.40;99.90
19908;DHT22;10116;53.112;7.356;2022-07-06T04:20:38;28.40;99.90
19908;DHT22;10116;53.112;7.356;2022-07-06T04:23:04;28.40;99.90
19908;DHT22;10116;53.112;7.356;2022-07-06T04:25:30;28.40;99.90
19908;DHT22;10116;53.112;7.356;2022-07-06T04:27:55;28.40;99.90
19908;DHT22;10116;53.112;7.356;2022-07-06T04:30:21;28.40;99.90
19908;DHT22;10116;53.112;7.356;2022-07-06T04:32:47;28.40;99.90
19908;DHT22;10116;53.112;7.356;2022-07-06T04:35:12;28.40;99.90
19908;DHT22;10116;53.112;7.356;2022-07-06T04:37:38;28.40;99.90
19908;DHT22;10116;53.112;7.356;2022-07-06T04:40:04;28.30;99.90
19908;DHT22;10116;53.112;7.356;2022-07-06T04:42:30;28.40;99.90
19908;DHT22;10116;53.112;7.356;2022-07-06T04:44:56;28.30;99.90
19908;DHT22;10116;53.112;7.356;2022-07-06T04:47:21;28.30;99.90
19908;DHT22;10116;53.112;7.356;2022-07-06T04:49:47;28.30;99.90
19908;DHT22;10116;53.112;7.356;2022-07-06T04:52:12;28.30;99.90
19908;DHT22;10116;53.112;7.356;2022-07-06T04:54:38;28.30;99.90
19908;DHT22;10116;53.112;7.356;2022-07-06T04:57:04;28.30;99.90
19908;DHT22;10116;53.112;7.356;2022-07-06T04:59:30;28.30;99.90
19908;DHT22;10116;53.112;7.356;2022-07-06T05:01:55;28.30;99.90
19908;DHT22;10116;53.112;7.356;2022-07-06T05:04:21;28.30;99.90
19908;DHT22;10116;53.112;7.356;2022-07-06T05:06:47;28.30;99.90
19908;DHT22;10116;53.112;7.356;2022-07-06T05:09:13;28.30;99.90
19908;DHT22;10116;53.112;7.356;2022-07-06T05:11:39;28.30;99.90
19908;DHT22;10116;53.112;7.356;2022-07-06T05:14:05;28.20;99.90
19908;DHT22;10116;53.112;7.356;2022-07-06T05:16:31;28.20;99.90
19908;DHT22;10116;53.112;7.356;2022-07-06T05:18:57;28.20;99.90
19908;DHT22;10116;53.112;7.356;2022-07-06T05:21:23;28.20;99.90
19908;DHT22;10116;53.112;7.356;2022-07-06T05:23:48;28.30;99.90
19908;DHT22;10116;53.112;7.356;2022-07-06T05:26:14;28.30;99.90
19908;DHT22;10116;53.112;7.356;2022-07-06T05:28:40;28.30;99.90
19908;DHT22;10116;53.112;7.356;2022-07-06T05:31:05;28.40;99.90
19908;DHT22;10116;53.112;7.356;2022-07-06T05:33:31;28.40;99.90
19908;DHT22;10116;53.112;7.356;2022-07-06T05:35:57;28.40;99.90
19908;DHT22;10116;53.112;7.356;2022-07-06T05:38:24;28.50;99.90
19908;DHT22;10116;53.112;7.356;2022-07-06T05:40:49;28.50;99.90
19908;DHT22;10116;53.112;7.356;2022-07-06T05:43:15;28.50;99.90
19908;DHT22;10116;53.112;7.356;2022-07-06T05:45:40;28.50;99.90
19908;DHT22;10116;53.112;7.356;2022-07-06T05:48:06;28.50;99.90
19908;DHT22;10116;53.112;7.356;2022-07-06T05:50:50;28.50;99.90
19908;DHT22;10116;53.112;7.356;2022-07-06T05:53:16;28.50;99.90
19908;DHT22;10116;53.112;7.356;2022-07-06T05:55:41;28.50;99.90
19908;DHT22;10116;53.112;7.356;2022-07-06T05:58:07;28.50;99.90
19908;DHT22;10116;53.112;7.356;2022-07-06T06:00:33;28.40;99.90
19908;DHT22;10116;53.112;7.356;2022-07-06T06:02:59;28.40;99.90
19908;DHT22;10116;53.112;7.356;2022-07-06T06:05:25;28.40;99.90
19908;DHT22;10116;53.112;7.356;2022-07-06T06:07:51;28.50;99.90
19908;DHT22;10116;53.112;7.356;2022-07-06T06:10:18;28.40;99.90
19908;DHT22;10116;53.112;7.356;2022-07-06T06:12:44;28.40;99.90
19908;DHT22;10116;53.112;7.356;2022-07-06T06:15:11;28.40;99.90
19908;DHT22;10116;53.112;7.356;2022-07-06T06:17:38;28.40;99.90
19908;DHT22;10116;53.112;7.356;2022-07-06T06:20:05;28.30;99.90
19908;DHT22;10116;53.112;7.356;2022-07-06T06:22:43;28.30;99.90
19908;DHT22;10116;53.112;7.356;2022-07-06T06:25:09;28.30;99.90
19908;DHT22;10116;53.112;7.356;2022-07-06T06:27:34;28.30;99.90
19908;DHT22;10116;53.112;7.356;2022-07-06T06:30:00;28.30;99.90
19908;DHT22;10116;53.112;7.356;2022-07-06T06:32:25;28.30;99.90
19908;DHT22;10116;53.112;7.356;2022-07-06T06:34:51;28.30;99.90
19908;DHT22;10116;53.112;7.356;2022-07-06T06:37:16;28.30;99.90
19908;DHT22;10116;53.112;7.356;2022-07-06T06:39:42;28.30;99.90
19908;DHT22;10116;53.112;7.356;2022-07-06T06:42:08;28.30;99.90
19908;DHT22;10116;53.112;7.356;2022-07-06T06:44:33;28.30;99.90
19908;DHT22;10116;53.112;7.356;2022-07-06T06:46:59;28.30;99.90
19908;DHT22;10116;53.112;7.356;2022-07-06T06:49:24;28.30;99.90
19908;DHT22;10116;53.112;7.356;2022-07-06T06:51:50;28.30;99.90
19908;DHT22;10116;53.112;7.356;2022-07-06T06:54:16;28.30;99.90
19908;DHT22;10116;53.112;7.356;2022-07-06T06:56:41;28.30;99.90
19908;DHT22;10116;53.112;7.356;2022-07-06T06:59:07;28.30;99.90
19908;DHT22;10116;53.112;7.356;2022-07-06T07:01:32;28.30;99.90
19908;DHT22;10116;53.112;7.356;2022-07-06T07:03:58;28.30;99.90
19908;DHT22;10116;53.112;7.356;2022-07-06T07:06:23;28.40;99.90
19908;DHT22;10116;53.112;7.356;2022-07-06T07:08:49;28.50;99.90
19908;DHT22;10116;53.112;7.356;2022-07-06T07:11:15;28.50;99.90
19908;DHT22;10116;53.112;7.356;2022-07-06T07:13:40;28.50;99.90
19908;DHT22;10116;53.112;7.356;2022-07-06T07:16:06;28.50;99.90
19908;DHT22;10116;53.112;7.356;2022-07-06T07:18:32;28.50;99.90
19908;DHT22;10116;53.112;7.356;2022-07-06T07:20:58;28.60;99.90
19908;DHT22;10116;53.112;7.356;2022-07-06T07:23:23;28.60;99.90
19908;DHT22;10116;53.112;7.356;2022-07-06T07:25:49;28.50;99.90
19908;DHT22;10116;53.112;7.356;2022-07-06T07:28:15;28.60;99.90
19908;DHT22;10116;53.112;7.356;2022-07-06T07:30:40;28.60;99.90
19908;DHT22;10116;53.112;7.356;2022-07-06T07:33:06;28.60;99.90
19908;DHT22;10116;53.112;7.356;2022-07-06T07:35:32;28.50;99.90
19908;DHT22;10116;53.112;7.356;2022-07-06T07:37:58;28.50;99.90
19908;DHT22;10116;53.112;7.356;2022-07-06T07:40:23;28.50;99.90
19908;DHT22;10116;53.112;7.356;2022-07-06T07:42:49;28.50;99.90
19908;DHT22;10116;53.112;7.356;2022-07-06T07:45:15;28.50;99.90
19908;DHT22;10116;53.112;7.356;2022-07-06T07:47:41;28.50;99.90
19908;DHT22;10116;53.112;7.356;2022-07-06T07:50:07;28.50;99.90
19908;DHT22;10116;53.112;7.356;2022-07-06T07:52:33;28.50;99.90
19908;DHT22;10116;53.112;7.356;2022-07-06T07:54:58;28.50;99.90
19908;DHT22;10116;53.112;7.356;2022-07-06T07:57:24;28.50;99.90
19908;DHT22;10116;53.112;7.356;2022-07-06T07:59:50;28.40;99.90
19908;DHT22;10116;53.112;7.356;2022-07-06T08:02:15;28.40;99.90
19908;DHT22;10116;53.112;7.356;2022-07-06T08:04:41;28.40;99.90
19908;DHT22;10116;53.112;7.356;2022-07-06T08:07:07;28.40;99.90
19908;DHT22;10116;53.112;7.356;2022-07-06T08:09:33;28.40;99.90
19908;DHT22;10116;53.112;7.356;2022-07-06T08:11:58;28.40;99.90
19908;DHT22;10116;53.112;7.356;2022-07-06T08:14:25;28.40;99.90
19908;DHT22;10116;53.112;7.356;2022-07-06T08:16:50;28.30;99.90
19908;DHT22;10116;53.112;7.356;2022-07-06T08:19:16;28.40;99.90
19908;DHT22;10116;53.112;7.356;2022-07-06T08:21:43;28.30;99.90
19908;DHT22;10116;53.112;7.356;2022-07-06T08:24:09;28.30;99.90
19908;DHT22;10116;53.112;7.356;2022-07-06T08:26:35;28.30;99.90
19908;DHT22;10116;53.112;7.356;2022-07-06T08:29:00;28.30;99.90
19908;DHT22;10116;53.112;7.356;2022-07-06T08:31:26;28.30;99.90
19908;DHT22;10116;53.112;7.356;2022-07-06T08:33:55;28.30;99.90
19908;DHT22;10116;53.112;7.356;2022-07-06T08:36:21;28.30;99.90
19908;DHT22;10116;53.112;7.356;2022-07-06T08:38:47;28.30;99.90
19908;DHT22;10116;53.112;7.356;2022-07-06T08:41:14;28.30;99.90
19908;DHT22;10116;53.112;7.356;2022-07-06T08:43:41;28.30;99.90
19908;DHT22;10116;53.112;7.356;2022-07-06T08:46:07;28.20;99.90
19908;DHT22;10116;53.112;7.356;2022-07-06T08:48:37;28.30;99.90
19908;DHT22;10116;53.112;7.356;2022-07-06T08:51:04;28.20;99.90
19908;DHT22;10116;53.112;7.356;2022-07-06T08:53:30;28.20;99.90
19908;DHT22;10116;53.112;7.356;2022-07-06T08:55:55;28.20;99.90
19908;DHT22;10116;53.112;7.356;2022-07-06T08:58:24;28.20;99.90
19908;DHT22;10116;53.112;7.356;2022-07-06T09:00:50;28.20;99.90
19908;DHT22;10116;53.112;7.356;2022-07-06T09:03:16;28.20;99.90
19908;DHT22;10116;53.112;7.356;2022-07-06T09:05:45;28.20;99.90
19908;DHT22;10116;53.112;7.356;2022-07-06T09:08:11;28.20;99.90
19908;DHT22;10116;53.112;7.356;2022-07-06T09:10:37;28.20;99.90
19908;DHT22;10116;53.112;7.356;2022-07-06T09:13:04;28.20;99.90
19908;DHT22;10116;53.112;7.356;2022-07-06T09:15:30;28.20;99.90
19908;DHT22;10116;53.112;7.356;2022-07-06T09:17:56;28.20;99.90
19908;DHT22;10116;53.112;7.356;2022-07-06T09:20:23;28.20;99.90
19908;DHT22;10116;53.112;7.356;2022-07-06T09:22:50;28.20;99.90
19908;DHT22;10116;53.112;7.356;2022-07-06T09:25:16;28.20;99.90
19908;DHT22;10116;53.112;7.356;2022-07-06T09:27:48;28.20;99.90
19908;DHT22;10116;53.112;7.356;2022-07-06T09:30:16;28.20;99.90
19908;DHT22;10116;53.112;7.356;2022-07-06T09:32:44;28.20;99.90
19908;DHT22;10116;53.112;7.356;2022-07-06T09:35:31;28.20;99.90
19908;DHT22;10116;53.112;7.356;2022-07-06T09:38:03;28.20;99.90
19908;DHT22;10116;53.112;7.356;2022-07-06T09:40:31;28.20;99.90
19908;DHT22;10116;53.112;7.356;2022-07-06T09:45:42;28.20;99.90
19908;DHT22;10116;53.112;7.356;2022-07-06T09:48:13;28.20;99.90
19908;DHT22;10116;53.112;7.356;2022-07-06T09:50:41;28.20;99.90
19908;DHT22;10116;53.112;7.356;2022-07-06T09:53:09;28.20;99.90
19908;DHT22;10116;53.112;7.356;2022-07-06T09:55:34;28.20;99.90
19908;DHT22;10116;53.112;7.356;2022-07-06T09:58:00;28.20;99.90
19908;DHT22;10116;53.112;7.356;2022-07-06T10:00:25;28.20;99.90
19908;DHT22;10116;53.112;7.356;2022-07-06T10:02:51;28.20;99.90
19908;DHT22;10116;53.112;7.356;2022-07-06T10:05:18;28.20;99.90
19908;DHT22;10116;53.112;7.356;2022-07-06T10:07:49;28.30;99.90
19908;DHT22;10116;53.112;7.356;2022-07-06T10:10:15;28.30;99.90
19908;DHT22;10116;53.112;7.356;2022-07-06T10:12:44;28.30;99.90
19908;DHT22;10116;53.112;7.356;2022-07-06T10:15:14;28.40;99.90
19908;DHT22;10116;53.112;7.356;2022-07-06T10:17:42;28.40;99.90
19908;DHT22;10116;53.112;7.356;2022-07-06T10:20:08;28.50;99.90
19908;DHT22;10116;53.112;7.356;2022-07-06T10:22:34;28.50;99.90
19908;DHT22;10116;53.112;7.356;2022-07-06T10:25:02;28.60;99.90
19908;DHT22;10116;53.112;7.356;2022-07-06T10:27:28;28.60;99.90
19908;DHT22;10116;53.112;7.356;2022-07-06T10:29:54;28.60;99.90
19908;DHT22;10116;53.112;7.356;2022-07-06T10:32:20;28.60;99.90
19908;DHT22;10116;53.112;7.356;2022-07-06T10:34:48;28.60;99.90
19908;DHT22;10116;53.112;7.356;2022-07-06T10:37:26;28.70;99.90
19908;DHT22;10116;53.112;7.356;2022-07-06T10:39:52;28.70;99.90
19908;DHT22;10116;53.112;7.356;2022-07-06T10:45:08;28.70;99.90
19908;DHT22;10116;53.112;7.356;2022-07-06T10:47:35;28.70;99.90
19908;DHT22;10116;53.112;7.356;2022-07-06T10:50:03;28.70;99.90
19908;DHT22;10116;53.112;7.356;2022-07-06T10:52:51;28.70;99.90
19908;DHT22;10116;53.112;7.356;2022-07-06T10:55:31;28.70;99.90
19908;DHT22;10116;53.112;7.356;2022-07-06T10:57:58;28.70;99.90
19908;DHT22;10116;53.112;7.356;2022-07-06T11:00:24;28.70;99.90
19908;DHT22;10116;53.112;7.356;2022-07-06T11:02:50;28.70;99.90
19908;DHT22;10116;53.112;7.356;2022-07-06T11:05:45;28.70;99.90
19908;DHT22;10116;53.112;7.356;2022-07-06T11:08:10;28.70;99.90
19908;DHT22;10116;53.112;7.356;2022-07-06T11:10:48;28.80;99.90
19908;DHT22;10116;53.112;7.356;2022-07-06T11:13:27;28.80;99.90
19908;DHT22;10116;53.112;7.356;2022-07-06T11:16:01;28.80;99.90
19908;DHT22;10116;53.112;7.356;2022-07-06T11:18:39;28.80;99.90
19908;DHT22;10116;53.112;7.356;2022-07-06T11:23:41;28.80;99.90
19908;DHT22;10116;53.112;7.356;2022-07-06T11:26:07;28.90;99.90
19908;DHT22;10116;53.112;7.356;2022-07-06T11:28:34;28.90;99.90
19908;DHT22;10116;53.112;7.356;2022-07-06T11:30:59;28.90;99.90
19908;DHT22;10116;53.112;7.356;2022-07-06T11:33:32;28.90;99.90
19908;DHT22;10116;53.112;7.356;2022-07-06T11:36:24;28.90;99.90
19908;DHT22;10116;53.112;7.356;2022-07-06T11:38:50;28.90;99.90
19908;DHT22;10116;53.112;7.356;2022-07-06T11:41:16;29.00;99.90
19908;DHT22;10116;53.112;7.356;2022-07-06T11:43:44;29.00;99.90
19908;DHT22;10116;53.112;7.356;2022-07-06T11:48:56;29.00;99.90
19908;DHT22;10116;53.112;7.356;2022-07-06T11:51:24;29.10;99.90
19908;DHT22;10116;53.112;7.356;2022-07-06T11:53:55;29.10;99.90
19908;DHT22;10116;53.112;7.356;2022-07-06T11:56:22;29.10;99.90
19908;DHT22;10116;53.112;7.356;2022-07-06T11:58:52;29.10;99.90
19908;DHT22;10116;53.112;7.356;2022-07-06T12:01:18;29.10;99.90
19908;DHT22;10116;53.112;7.356;2022-07-06T12:03:44;29.10;99.90
19908;DHT22;10116;53.112;7.356;2022-07-06T12:06:19;29.10;99.90
19908;DHT22;10116;53.112;7.356;2022-07-06T12:08:51;29.10;99.90
19908;DHT22;10116;53.112;7.356;2022-07-06T12:13:45;29.10;99.90
19908;DHT22;10116;53.112;7.356;2022-07-06T12:16:12;29.10;99.90
19908;DHT22;10116;53.112;7.356;2022-07-06T12:18:39;29.10;99.90
19908;DHT22;10116;53.112;7.356;2022-07-06T12:21:08;29.00;99.90
19908;DHT22;10116;53.112;7.356;2022-07-06T12:23:41;29.00;99.90
19908;DHT22;10116;53.112;7.356;2022-07-06T12:26:08;29.00;99.90
19908;DHT22;10116;53.112;7.356;2022-07-06T12:28:34;29.00;99.90
19908;DHT22;10116;53.112;7.356;2022-07-06T12:31:00;29.00;99.90
19908;DHT22;10116;53.112;7.356;2022-07-06T12:33:25;29.00;99.90
19908;DHT22;10116;53.112;7.356;2022-07-06T12:35:53;29.10;99.90
19908;DHT22;10116;53.112;7.356;2022-07-06T12:38:25;29.10;99.90
19908;DHT22;10116;53.112;7.356;2022-07-06T12:40:52;29.00;99.90
19908;DHT22;10116;53.112;7.356;2022-07-06T12:43:38;29.00;99.90
19908;DHT22;10116;53.112;7.356;2022-07-06T12:46:23;29.00;99.90
19908;DHT22;10116;53.112;7.356;2022-07-06T12:48:55;29.00;99.90
19908;DHT22;10116;53.112;7.356;2022-07-06T12:51:21;28.90;99.90
19908;DHT22;10116;53.112;7.356;2022-07-06T12:53:47;28.90;99.90
19908;DHT22;10116;53.112;7.356;2022-07-06T12:56:13;28.90;99.90
19908;DHT22;10116;53.112;7.356;2022-07-06T12:58:39;28.90;99.90
19908;DHT22;10116;53.112;7.356;2022-07-06T13:01:05;28.80;99.90
19908;DHT22;10116;53.112;7.356;2022-07-06T13:03:40;28.80;99.90
19908;DHT22;10116;53.112;7.356;2022-07-06T13:06:06;28.80;99.90
19908;DHT22;10116;53.112;7.356;2022-07-06T13:08:32;28.90;99.90
19908;DHT22;10116;53.112;7.356;2022-07-06T13:10:57;28.90;99.90
19908;DHT22;10116;53.112;7.356;2022-07-06T13:13:23;28.90;99.90
19908;DHT22;10116;53.112;7.356;2022-07-06T13:15:48;28.90;99.90
19908;DHT22;10116;53.112;7.356;2022-07-06T13:18:15;28.90;99.90
19908;DHT22;10116;53.112;7.356;2022-07-06T13:20:44;29.00;99.90
19908;DHT22;10116;53.112;7.356;2022-07-06T13:23:09;29.00;99.90
19908;DHT22;10116;53.112;7.356;2022-07-06T13:25:35;29.10;99.90
19908;DHT22;10116;53.112;7.356;2022-07-06T13:28:00;29.10;99.90
19908;DHT22;10116;53.112;7.356;2022-07-06T13:30:26;29.20;99.90
19908;DHT22;10116;53.112;7.356;2022-07-06T13:32:52;29.20;99.90
19908;DHT22;10116;53.112;7.356;2022-07-06T13:35:17;29.20;99.90
19908;DHT22;10116;53.112;7.356;2022-07-06T13:37:43;29.30;99.90
19908;DHT22;10116;53.112;7.356;2022-07-06T13:40:12;29.30;99.90
19908;DHT22;10116;53.112;7.356;2022-07-06T13:42:38;29.30;99.90
19908;DHT22;10116;53.112;7.356;2022-07-06T13:45:04;29.30;99.90
19908;DHT22;10116;53.112;7.356;2022-07-06T13:47:29;29.30;99.90
19908;DHT22;10116;53.112;7.356;2022-07-06T13:49:55;29.20;99.90
19908;DHT22;10116;53.112;7.356;2022-07-06T13:52:21;29.20;99.90
19908;DHT22;10116;53.112;7.356;2022-07-06T13:54:46;29.30;99.90
19908;DHT22;10116;53.112;7.356;2022-07-06T13:57:12;29.30;99.90
19908;DHT22;10116;53.112;7.356;2022-07-06T13:59:38;29.20;99.90
19908;DHT22;10116;53.112;7.356;2022-07-06T14:02:03;29.30;99.90
19908;DHT22;10116;53.112;7.356;2022-07-06T14:04:29;29.20;99.90
19908;DHT22;10116;53.112;7.356;2022-07-06T14:06:55;29.20;99.90
19908;DHT22;10116;53.112;7.356;2022-07-06T14:09:20;29.20;99.90
19908;DHT22;10116;53.112;7.356;2022-07-06T14:11:46;29.20;99.90
19908;DHT22;10116;53.112;7.356;2022-07-06T14:14:12;29.20;99.90
19908;DHT22;10116;53.112;7.356;2022-07-06T14:16:37;29.20;99.90
19908;DHT22;10116;53.112;7.356;2022-07-06T14:19:05;29.20;99.90
19908;DHT22;10116;53.112;7.356;2022-07-06T14:21:31;29.20;99.90
19908;DHT22;10116;53.112;7.356;2022-07-06T14:23:56;29.20;99.90
19908;DHT22;10116;53.112;7.356;2022-07-06T14:26:22;29.10;99.90
19908;DHT22;10116;53.112;7.356;2022-07-06T14:28:48;29.20;99.90
19908;DHT22;10116;53.112;7.356;2022-07-06T14:31:13;29.10;99.90
19908;DHT22;10116;53.112;7.356;2022-07-06T14:33:39;29.10;99.90
19908;DHT22;10116;53.112;7.356;2022-07-06T14:36:05;29.10;99.90
19908;DHT22;10116;53.112;7.356;2022-07-06T14:38:31;29.10;99.90
19908;DHT22;10116;53.112;7.356;2022-07-06T14:40:56;29.10;99.90
19908;DHT22;10116;53.112;7.356;2022-07-06T14:43:22;29.10;99.90
19908;DHT22;10116;53.112;7.356;2022-07-06T14:45:47;29.10;99.90
19908;DHT22;10116;53.112;7.356;2022-07-06T14:48:13;29.10;99.90
19908;DHT22;10116;53.112;7.356;2022-07-06T14:50:39;29.00;99.90
19908;DHT22;10116;53.112;7.356;2022-07-06T14:53:05;29.00;99.90
19908;DHT22;10116;53.112;7.356;2022-07-06T14:55:30;29.00;99.90
19908;DHT22;10116;53.112;7.356;2022-07-06T14:57:56;29.00;99.90
19908;DHT22;10116;53.112;7.356;2022-07-06T15:00:22;29.00;99.90
19908;DHT22;10116;53.112;7.356;2022-07-06T15:02:47;28.90;99.90
19908;DHT22;10116;53.112;7.356;2022-07-06T15:05:13;29.00;99.90
19908;DHT22;10116;53.112;7.356;2022-07-06T15:07:39;28.90;99.90
19908;DHT22;10116;53.112;7.356;2022-07-06T15:10:06;29.00;99.90
19908;DHT22;10116;53.112;7.356;2022-07-06T15:12:32;29.00;99.90
19908;DHT22;10116;53.112;7.356;2022-07-06T15:14:58;29.10;99.90
19908;DHT22;10116;53.112;7.356;2022-07-06T15:17:24;29.10;99.90
19908;DHT22;10116;53.112;7.356;2022-07-06T15:19:49;29.10;99.90
19908;DHT22;10116;53.112;7.356;2022-07-06T15:22:15;29.10;99.90
19908;DHT22;10116;53.112;7.356;2022-07-06T15:24:40;29.10;99.90
19908;DHT22;10116;53.112;7.356;2022-07-06T15:27:06;29.20;99.90
19908;DHT22;10116;53.112;7.356;2022-07-06T15:29:32;29.20;99.90
19908;DHT22;10116;53.112;7.356;2022-07-06T15:31:58;29.10;99.90
19908;DHT22;10116;53.112;7.356;2022-07-06T15:34:24;29.20;99.90
19908;DHT22;10116;53.112;7.356;2022-07-06T15:36:49;29.10;99.90
19908;DHT22;10116;53.112;7.356;2022-07-06T15:39:16;29.10;99.90
19908;DHT22;10116;53.112;7.356;2022-07-06T15:41:41;29.10;99.90